Time;durP1;ratioP1;P1;durP2;ratioP2;P2;SDS_P1;SDS_P2;PMS_P1;PMS_P2;Temp;Humidity;BMP_temperature;BMP_pressure;BME280_temperature;BME280_humidity;BME280_pressure;Samples;Min_cycle;Max_cycle;Signal;HPM_P1;HPM_P2
2021/05/01 00:00:26;;;;;;;28.00;17.27;;;;;;;4.57;100.00;101534.69;5084057;28;20106;-81
2021/05/01 00:02:51;;;;;;;33.72;19.20;;;;;;;4.47;100.00;101541.75;5067829;28;20063;-81
2021/05/01 00:05:17;;;;;;;28.00;16.80;;;;;;;4.41;100.00;101537.41;5069545;28;20060;-81
2021/05/01 00:07:42;;;;;;;27.45;17.67;;;;;;;4.54;100.00;101532.09;5071600;28;20033;-79
2021/05/01 00:10:11;;;;;;;27.85;16.70;;;;;;;4.23;100.00;101515.75;5067576;28;20374;-80
2021/05/01 00:12:40;;;;;;;30.15;17.02;;;;;;;4.28;100.00;101533.16;5066081;28;20017;-79
2021/05/01 00:15:07;;;;;;;23.45;15.85;;;;;;;4.27;100.00;101541.91;5062836;28;20389;-80
2021/05/01 00:17:32;;;;;;;31.25;16.38;;;;;;;4.31;100.00;101522.66;5070133;28;20044;-79
2021/05/01 00:19:57;;;;;;;24.70;17.08;;;;;;;4.19;100.00;101528.00;5064738;28;20457;-80
2021/05/01 00:22:23;;;;;;;33.28;17.35;;;;;;;4.20;100.00;101524.50;5065439;28;20032;-79
2021/05/01 00:24:48;;;;;;;24.05;16.45;;;;;;;4.16;100.00;101513.16;5071544;28;20152;-79
2021/05/01 00:27:13;;;;;;;26.77;17.38;;;;;;;4.28;100.00;101512.22;5060234;28;20036;-80
2021/05/01 00:29:39;;;;;;;24.50;15.48;;;;;;;4.35;100.00;101515.66;5062356;28;20033;-79
2021/05/01 00:32:04;;;;;;;25.10;15.02;;;;;;;4.32;100.00;101519.19;5062157;28;20029;-79
2021/05/01 00:34:30;;;;;;;36.33;16.30;;;;;;;4.30;100.00;101523.53;5067120;28;20034;-79
2021/05/01 00:36:55;;;;;;;28.25;15.68;;;;;;;4.15;100.00;101524.53;5065337;28;20024;-79
2021/05/01 00:39:20;;;;;;;22.92;16.15;;;;;;;4.15;100.00;101524.53;5063973;28;20028;-80
2021/05/01 00:41:46;;;;;;;24.45;16.05;;;;;;;4.02;100.00;101520.28;5061589;28;20056;-79
2021/05/01 00:44:12;;;;;;;25.52;16.63;;;;;;;4.15;100.00;101523.66;5062322;28;20029;-80
2021/05/01 00:46:37;;;;;;;31.27;16.10;;;;;;;4.11;100.00;101517.56;5063249;28;20396;-80
2021/05/01 00:49:03;;;;;;;27.42;15.68;;;;;;;3.96;100.00;101519.41;5067010;28;20035;-80
2021/05/01 00:51:29;;;;;;;26.83;16.77;;;;;;;3.80;100.00;101510.81;5060521;28;20108;-79
2021/05/01 00:53:55;;;;;;;26.52;17.25;;;;;;;3.74;100.00;101506.47;5065218;28;20068;-79
2021/05/01 00:56:20;;;;;;;26.73;15.77;;;;;;;3.87;100.00;101507.28;5064311;28;20039;-80
2021/05/01 00:58:46;;;;;;;28.65;15.05;;;;;;;3.86;100.00;101505.53;5066933;28;20067;-81
2021/05/01 01:01:18;;;;;;;30.67;14.95;;;;;;;3.73;100.00;101509.97;5065862;28;20029;-80
2021/05/01 01:03:46;;;;;;;25.13;14.65;;;;;;;3.85;100.00;101512.50;5075499;28;20013;-79
2021/05/01 01:06:13;;;;;;;24.63;14.80;;;;;;;3.69;100.00;101507.38;5079540;28;20047;-79
2021/05/01 01:08:40;;;;;;;24.73;15.57;;;;;;;3.59;100.00;101502.22;5079146;28;20036;-79
2021/05/01 01:11:07;;;;;;;23.63;17.15;;;;;;;3.56;100.00;101502.22;5074508;28;20035;-79
2021/05/01 01:13:33;;;;;;;36.05;19.55;;;;;;;3.57;100.00;101506.59;5064383;28;20815;-80
2021/05/01 01:15:59;;;;;;;32.05;19.25;;;;;;;3.45;100.00;101506.63;5058251;28;20047;-80
2021/05/01 01:18:24;;;;;;;33.72;19.55;;;;;;;3.40;100.00;101497.94;5065236;28;20033;-80
2021/05/01 01:20:50;;;;;;;35.30;20.92;;;;;;;3.35;100.00;101507.53;5059603;28;20044;-80
2021/05/01 01:23:15;;;;;;;36.55;21.83;;;;;;;3.31;100.00;101498.88;5063032;28;20032;-80
2021/05/01 01:25:41;;;;;;;33.45;21.38;;;;;;;3.28;100.00;101503.22;5065412;28;20039;-80
2021/05/01 01:28:06;;;;;;;38.28;21.35;;;;;;;3.23;100.00;101505.00;5064872;28;20033;-80
2021/05/01 01:30:34;;;;;;;36.35;21.77;;;;;;;3.22;100.00;101492.81;5060878;28;20241;-80
2021/05/01 01:33:02;;;;;;;37.75;22.85;;;;;;;3.19;100.00;101498.91;5065250;28;20032;-79
2021/05/01 01:35:28;;;;;;;34.38;19.38;;;;;;;3.18;100.00;101494.56;5068238;28;20045;-80
2021/05/01 01:37:54;;;;;;;36.22;21.83;;;;;;;3.20;100.00;101495.41;5066725;28;20103;-80
2021/05/01 01:40:21;;;;;;;38.85;22.40;;;;;;;3.22;100.00;101496.28;5060801;28;20092;-80
2021/05/01 01:42:47;;;;;;;36.85;21.27;;;;;;;3.24;100.00;101497.13;5067683;28;20051;-79
2021/05/01 01:45:16;;;;;;;34.33;21.05;;;;;;;3.16;100.00;101498.91;5069425;28;20028;-79
2021/05/01 01:47:41;;;;;;;29.80;20.38;;;;;;;3.18;100.00;101498.91;5071015;28;20047;-80
2021/05/01 01:50:10;;;;;;;30.50;19.70;;;;;;;3.22;100.00;101498.91;5062797;28;20028;-79
2021/05/01 01:52:37;;;;;;;31.38;18.92;;;;;;;3.19;100.00;101498.91;5060957;28;20029;-79
2021/05/01 01:55:08;;;;;;;29.33;20.35;;;;;;;3.21;100.00;101504.09;5062447;28;20500;-79
2021/05/01 01:57:33;;;;;;;28.83;18.30;;;;;;;3.23;100.00;101498.03;5066154;28;20037;-79
2021/05/01 01:59:59;;;;;;;29.83;18.90;;;;;;;3.25;100.00;101500.63;5061997;28;20117;-79
2021/05/01 02:02:25;;;;;;;28.98;17.80;;;;;;;3.45;100.00;101490.94;5066300;28;20079;-80
2021/05/01 02:04:50;;;;;;;31.73;19.08;;;;;;;3.31;100.00;101495.34;5073027;28;20024;-80
2021/05/01 02:07:16;;;;;;;29.70;16.92;;;;;;;3.20;100.00;101486.69;5066956;28;20054;-79
2021/05/01 02:09:41;;;;;;;35.22;19.52;;;;;;;3.20;100.00;101490.19;5067306;28;20028;-80
2021/05/01 02:12:07;;;;;;;29.83;18.67;;;;;;;3.22;100.00;101492.81;5060111;28;20030;-80
2021/05/01 02:14:32;;;;;;;24.55;16.65;;;;;;;3.11;100.00;101492.81;5066377;28;20075;-80
2021/05/01 02:16:57;;;;;;;30.77;18.30;;;;;;;3.11;100.00;101496.31;5071861;28;20031;-80
2021/05/01 02:19:23;;;;;;;38.17;20.73;;;;;;;3.09;100.00;101492.84;5059648;28;20400;-80
2021/05/01 02:21:49;;;;;;;43.47;24.35;;;;;;;3.01;100.00;101486.78;5063268;28;20481;-80
2021/05/01 02:24:15;;;;;;;34.22;23.13;;;;;;;2.99;100.00;101480.69;5070482;28;20041;-80
2021/05/01 02:26:40;;;;;;;42.42;23.25;;;;;;;2.94;100.00;101481.56;5067024;28;20058;-80
2021/05/01 02:29:06;;;;;;;35.30;22.88;;;;;;;2.76;100.00;101483.38;5061436;28;20021;-80
2021/05/01 02:31:31;;;;;;;30.75;20.17;;;;;;;2.72;100.00;101475.53;5068242;28;20029;-79
2021/05/01 02:33:56;;;;;;;34.67;20.00;;;;;;;2.73;100.00;101479.88;5071168;28;20036;-79
2021/05/01 02:36:22;;;;;;;49.10;25.00;;;;;;;2.70;100.00;101485.97;5060228;28;20365;-79
2021/05/01 02:38:48;;;;;;;30.75;20.77;;;;;;;2.70;100.00;101479.88;5065252;28;20028;-79
2021/05/01 02:41:13;;;;;;;36.80;20.95;;;;;;;2.59;100.00;101479.91;5065053;28;20021;-80
2021/05/01 02:43:38;;;;;;;40.25;20.50;;;;;;;2.71;100.00;101477.28;5064853;28;20035;-79
2021/05/01 02:46:04;;;;;;;41.05;22.27;;;;;;;2.76;100.00;101479.84;5063044;28;20033;-79
2021/05/01 02:48:30;;;;;;;38.65;23.95;;;;;;;2.67;100.00;101478.16;5063747;28;20614;-80
2021/05/01 02:50:57;;;;;;;47.47;24.67;;;;;;;2.66;100.00;101476.44;5067829;28;20158;-80
2021/05/01 02:53:22;;;;;;;41.60;23.88;;;;;;;2.59;100.00;101475.53;5068792;28;20025;-80
2021/05/01 02:55:48;;;;;;;48.80;24.88;;;;;;;2.56;100.00;101465.13;5068998;28;20051;-80
2021/05/01 02:58:14;;;;;;;47.33;26.60;;;;;;;2.57;100.00;101469.47;5076596;28;20024;-82
2021/05/01 03:00:40;;;;;;;45.70;25.90;;;;;;;2.47;100.00;101467.75;5064897;28;20480;-81
2021/05/01 03:03:05;;;;;;;41.05;23.35;;;;;;;2.47;100.00;101474.72;5063766;28;20041;-80
2021/05/01 03:05:30;;;;;;;42.22;23.05;;;;;;;2.78;100.00;101468.56;5063329;28;20053;-80
2021/05/01 03:07:56;;;;;;;39.47;22.85;;;;;;;2.85;100.00;101464.19;5067404;28;20052;-79
2021/05/01 03:10:25;;;;;;;44.60;25.92;;;;;;;2.73;100.00;101465.09;5077683;28;20032;-80
2021/05/01 03:12:51;;;;;;;39.55;23.98;;;;;;;2.63;100.00;101471.19;5071702;28;20049;-80
2021/05/01 03:15:16;;;;;;;35.60;23.48;;;;;;;2.62;100.00;101466.84;5066485;28;20028;-80
2021/05/01 03:17:43;;;;;;;34.70;21.83;;;;;;;2.69;100.00;101458.13;5071786;28;20043;-80
2021/05/01 03:20:09;;;;;;;32.55;20.80;;;;;;;2.73;100.00;101456.41;5064735;28;20063;-80
2021/05/01 03:22:34;;;;;;;38.38;22.05;;;;;;;2.78;100.00;101457.25;5069216;28;20024;-80
2021/05/01 03:25:01;;;;;;;33.15;20.17;;;;;;;3.00;100.00;101466.75;5063766;28;20036;-80
2021/05/01 03:27:26;;;;;;;30.30;20.30;;;;;;;3.08;100.00;101453.66;5066023;28;20044;-80
2021/05/01 03:29:51;;;;;;;33.17;21.80;;;;;;;3.11;100.00;101457.16;5070509;28;20029;-80
2021/05/01 03:32:17;;;;;;;32.67;21.40;;;;;;;3.21;100.00;101462.31;5079271;28;20072;-80
2021/05/01 03:34:50;;;;;;;31.45;21.98;;;;;;;3.21;100.00;101462.31;5077027;28;20039;-80
2021/05/01 03:37:17;;;;;;;37.00;20.50;;;;;;;3.21;100.00;101462.31;5079686;28;20705;-80
2021/05/01 03:39:46;;;;;;;27.33;18.40;;;;;;;3.21;100.00;101462.31;5069320;28;20080;-80
2021/05/01 03:42:48;;;;;;;34.30;19.75;;;;;;;3.21;100.00;101462.31;5068709;28;20036;-80
2021/05/01 03:45:35;;;;;;;22.35;17.27;;;;;;;3.21;100.00;101462.31;5072554;28;20036;-80
2021/05/01 03:48:44;;;;;;;31.13;17.38;;;;;;;;;;5068620;28;20563;-80
2021/05/01 03:51:22;;;;;;;23.98;16.05;;;;;;;3.21;100.00;101462.31;5064556;28;20135;-79
2021/05/01 03:54:04;;;;;;;22.15;14.40;;;;;;;3.21;100.00;101462.31;5064282;28;20031;-79
2021/05/01 03:57:04;;;;;;;20.90;13.23;;;;;;;3.21;100.00;101462.31;5073266;28;20029;-80
2021/05/01 03:59:29;;;;;;;16.92;12.70;;;;;;;4.25;100.00;101444.22;5064987;28;20072;-80
2021/05/01 04:01:55;;;;;;;20.70;12.43;;;;;;;4.19;100.00;101443.41;5063428;28;20037;-79
2021/05/01 04:04:20;;;;;;;20.80;12.40;;;;;;;4.18;100.00;101449.53;5070244;28;20452;-79
2021/05/01 04:06:46;;;;;;;29.83;12.75;;;;;;;4.12;100.00;101438.22;5067655;28;20522;-80
2021/05/01 04:09:11;;;;;;;21.48;13.05;;;;;;;4.02;100.00;101448.78;5064580;28;20035;-79
2021/05/01 04:11:37;;;;;;;20.65;13.30;;;;;;;3.97;100.00;101443.59;5076662;28;20028;-80
2021/05/01 04:14:02;;;;;;;25.17;12.95;;;;;;;3.97;100.00;101446.19;5074914;28;20025;-80
2021/05/01 04:16:27;;;;;;;22.70;11.95;;;;;;;3.74;100.00;101456.81;5070166;28;20084;-80
2021/05/01 04:18:53;;;;;;;16.98;12.50;;;;;;;3.79;100.00;101443.72;5073970;28;20055;-80
2021/05/01 04:21:18;;;;;;;19.95;12.85;;;;;;;3.64;100.00;101453.38;5062315;28;20025;-81
2021/05/01 04:23:45;;;;;;;24.00;13.23;;;;;;;3.59;100.00;101452.53;5076776;28;20031;-80
2021/05/01 04:26:10;;;;;;;18.88;12.48;;;;;;;3.55;100.00;101453.44;5067479;28;20029;-80
2021/05/01 04:28:36;;;;;;;25.08;12.13;;;;;;;3.48;100.00;101446.50;5073520;28;20035;-80
2021/05/01 04:31:01;;;;;;;25.05;13.68;;;;;;;3.50;100.00;101455.19;5073378;28;20032;-80
2021/05/01 04:33:28;;;;;;;27.05;13.18;;;;;;;3.43;100.00;101450.03;5068473;28;20070;-79
2021/05/01 04:35:54;;;;;;;27.08;13.73;;;;;;;3.56;100.00;101457.78;5063276;28;20043;-79
2021/05/01 04:38:20;;;;;;;21.27;13.45;;;;;;;3.59;100.00;101456.91;5069758;28;20520;-80
2021/05/01 04:40:46;;;;;;;30.02;14.60;;;;;;;3.57;100.00;101448.22;5063539;28;20476;-79
2021/05/01 04:43:13;;;;;;;17.50;11.10;;;;;;;3.60;100.00;101456.88;5067550;28;20036;-79
2021/05/01 04:45:39;;;;;;;31.05;12.88;;;;;;;3.63;100.00;101458.63;5064577;28;20051;-79
2021/05/01 04:48:06;;;;;;;19.73;12.10;;;;;;;3.55;100.00;101460.41;5063594;28;20032;-79
2021/05/01 04:50:32;;;;;;;19.85;11.57;;;;;;;3.42;100.00;101454.41;5065913;28;20051;-81
2021/05/01 04:52:57;;;;;;;23.00;12.35;;;;;;;3.52;100.00;101461.31;5067312;28;20029;-80
2021/05/01 04:55:25;;;;;;;20.85;12.10;;;;;;;3.63;100.00;101466.47;5072049;28;20581;-81
2021/05/01 04:57:51;;;;;;;22.95;13.23;;;;;;;3.68;100.00;101467.31;5062495;28;20020;-81
2021/05/01 05:00:20;;;;;;;21.52;12.13;;;;;;;3.79;100.00;101467.25;5062498;28;20404;-79
2021/05/01 05:02:46;;;;;;;17.90;11.95;;;;;;;3.80;100.00;101466.34;5066850;28;20059;-79
2021/05/01 05:05:15;;;;;;;20.98;13.07;;;;;;;3.89;100.00;101459.31;5067342;28;20052;-79
2021/05/01 05:07:41;;;;;;;23.92;12.27;;;;;;;3.90;100.00;101465.41;5071073;28;20044;-79
2021/05/01 05:10:09;;;;;;;17.05;12.10;;;;;;;3.95;100.00;101460.16;5064076;28;20026;-79
2021/05/01 05:12:34;;;;;;;19.90;11.43;;;;;;;4.07;100.00;101458.31;5066589;28;20495;-79
2021/05/01 05:15:00;;;;;;;24.70;12.85;;;;;;;4.12;100.00;101456.53;5066541;28;20032;-79
2021/05/01 05:17:25;;;;;;;23.42;11.25;;;;;;;4.24;100.00;101459.94;5064420;28;20043;-79
2021/05/01 05:19:51;;;;;;;21.38;11.68;;;;;;;4.28;100.00;101477.34;5060528;28;20031;-80
2021/05/01 05:22:16;;;;;;;17.58;11.23;;;;;;;4.27;100.00;101471.25;5054761;28;20029;-79
2021/05/01 05:24:42;;;;;;;18.50;12.00;;;;;;;4.36;100.00;101473.75;5059846;28;20033;-81
2021/05/01 05:27:07;;;;;;;20.90;11.32;;;;;;;4.52;100.00;101468.38;5071164;28;20045;-80
2021/05/01 05:29:33;;;;;;;21.80;11.85;;;;;;;4.61;100.00;101476.16;5065639;28;20057;-80
2021/05/01 05:31:59;;;;;;;16.20;9.60;;;;;;;4.60;100.00;101469.19;5069158;28;20097;-79
2021/05/01 05:34:25;;;;;;;21.98;10.20;;;;;;;4.76;100.00;101475.13;5064003;28;20025;-79
2021/05/01 05:36:51;;;;;;;13.23;9.45;;;;;;;4.86;100.00;101484.63;5065747;28;20032;-79
2021/05/01 05:39:17;;;;;;;14.90;10.15;;;;;;;4.84;100.00;101482.03;5077790;28;20071;-80
2021/05/01 05:41:43;;;;;;;15.98;8.88;;;;;;;4.94;100.00;101475.81;5064987;28;20062;-80
2021/05/01 05:44:09;;;;;;;15.82;9.48;;;;;;;4.98;100.00;101479.28;5064503;28;20035;-80
2021/05/01 05:46:35;;;;;;;20.98;9.23;;;;;;;5.06;100.00;101476.56;5063111;28;20040;-80
2021/05/01 05:49:00;;;;;;;16.25;9.40;;;;;;;5.13;100.00;101481.72;5069748;28;20036;-80
2021/05/01 05:51:29;;;;;;;19.17;8.50;;;;;;;5.30;100.00;101478.88;5065650;28;20667;-80
2021/05/01 05:53:54;;;;;;;11.93;7.95;;;;;;;5.26;100.00;101484.19;5067666;28;20025;-80
2021/05/01 05:56:20;;;;;;;13.48;7.10;;;;;;;5.42;100.00;101481.38;5068906;28;20033;-81
2021/05/01 05:58:47;;;;;;;13.20;6.97;;;;;;;5.60;100.00;101485.47;5063109;28;20052;-80
2021/05/01 06:01:13;;;;;;;11.48;7.22;;;;;;;5.57;100.00;101480.28;5062229;28;20029;-81
2021/05/01 06:03:39;;;;;;;13.27;5.75;;;;;;;5.69;100.00;101489.75;5067992;28;20031;-80
2021/05/01 06:06:12;;;;;;;9.48;5.55;;;;;;;5.65;100.00;101485.41;5067044;28;20222;-80
2021/05/01 06:08:38;;;;;;;13.23;5.72;;;;;;;5.63;100.00;101492.47;5067307;28;20051;-81
2021/05/01 06:11:04;;;;;;;15.90;6.60;;;;;;;5.72;100.00;101489.69;5064366;28;20088;-79
2021/05/01 06:13:32;;;;;;;12.63;6.72;;;;;;;5.88;100.00;101488.59;5069929;28;20082;-79
2021/05/01 06:15:59;;;;;;;12.18;5.75;;;;;;;5.81;100.00;101489.56;5051792;28;20043;-80
2021/05/01 06:18:26;;;;;;;14.60;6.88;;;;;;;5.93;100.00;101485.94;5064021;28;20475;-79
2021/05/01 06:20:53;;;;;;;13.82;6.32;;;;;;;6.02;100.00;101487.53;5059902;28;20033;-79
2021/05/01 06:23:20;;;;;;;12.20;6.60;;;;;;;6.07;100.00;101483.06;5057834;28;20029;-79
2021/05/01 06:25:55;;;;;;;9.38;5.57;;;;;;;5.96;100.00;101484.09;5066311;28;20031;-79
2021/05/01 06:28:21;;;;;;;10.23;5.85;;;;;;;6.19;100.00;101486.38;5065254;28;20059;-79
2021/05/01 06:30:46;;;;;;;15.93;5.82;;;;;;;6.31;100.00;101487.94;5061294;28;20045;-79
2021/05/01 06:33:14;;;;;;;10.40;6.53;;;;;;;6.47;100.00;101483.28;5064226;28;20040;-79
2021/05/01 06:35:41;;;;;;;11.05;5.28;;;;;;;6.36;100.00;101491.34;5060277;28;20041;-79
2021/05/01 06:38:07;;;;;;;9.45;5.85;;;;;;;6.48;100.00;101480.66;5056106;28;20053;-80
2021/05/01 06:40:37;;;;;;;8.43;4.78;;;;;;;6.70;100.00;101485.53;5061849;28;20036;-80
2021/05/01 06:43:10;;;;;;;12.55;5.45;;;;;;;6.84;100.00;101478.25;5060282;28;20033;-79
2021/05/01 06:45:39;;;;;;;16.25;4.90;;;;;;;6.84;100.00;101486.16;5067526;28;20028;-79
2021/05/01 06:48:07;;;;;;;13.68;6.10;;;;;;;7.03;100.00;101486.66;5061360;28;20054;-79
2021/05/01 06:50:33;;;;;;;8.38;4.75;;;;;;;7.11;100.00;101482.09;5062601;28;20135;-79
2021/05/01 06:52:59;;;;;;;13.73;5.38;;;;;;;7.00;100.00;101482.31;5056306;28;20025;-79
2021/05/01 06:55:27;;;;;;;13.30;5.50;;;;;;;7.10;100.00;101490.91;5065073;28;20029;-78
2021/05/01 06:57:54;;;;;;;12.10;5.25;;;;;;;7.37;100.00;101488.59;5068957;28;20096;-78
2021/05/01 07:00:22;;;;;;;11.85;4.57;;;;;;;7.40;100.00;101485.91;5063117;28;20041;-79
2021/05/01 07:02:51;;;;;;;9.20;4.70;;;;;;;7.37;100.00;101488.59;5063762;28;20043;-79
2021/05/01 07:05:24;;;;;;;12.30;4.50;;;;;;;7.61;100.00;101481.94;5068827;28;20077;-80
2021/05/01 07:07:50;;;;;;;10.57;4.97;;;;;;;7.68;100.00;101487.06;5065671;28;20094;-80
2021/05/01 07:10:17;;;;;;;9.45;4.47;;;;;;;7.59;100.00;101483.75;5064141;28;20824;-80
2021/05/01 07:12:43;;;;;;;11.82;5.72;;;;;;;7.72;100.00;101474.69;5066936;28;20528;-80
2021/05/01 07:15:16;;;;;;;8.27;3.72;;;;;;;7.91;100.00;101472.50;5072186;28;20033;-80
2021/05/01 07:17:42;;;;;;;12.02;4.32;;;;;;;7.73;100.00;101481.66;5062930;28;20021;-79
2021/05/01 07:20:09;;;;;;;7.28;4.70;;;;;;;7.90;100.00;101486.56;5056345;28;20067;-79
2021/05/01 07:22:35;;;;;;;11.88;5.07;;;;;;;8.26;100.00;101475.16;5064990;28;20084;-79
2021/05/01 07:25:07;;;;;;;10.52;4.90;;;;;;;8.18;100.00;101477.13;5059850;28;20029;-80
2021/05/01 07:27:40;;;;;;;22.05;5.93;;;;;;;8.46;100.00;101471.19;5070722;28;20049;-79
2021/05/01 07:30:06;;;;;;;34.78;8.30;;;;;;;8.35;100.00;101470.56;5060145;28;20101;-80
2021/05/01 07:32:35;;;;;;;19.60;7.28;;;;;;;8.15;100.00;101476.31;5052204;28;20027;-79
2021/05/01 07:35:07;;;;;;;17.27;4.43;;;;;;;7.92;100.00;101479.50;5066329;28;20051;-79
2021/05/01 07:37:36;;;;;;;10.48;4.45;;;;;;;8.24;100.00;101474.34;5059679;28;20148;-79
2021/05/01 07:40:05;;;;;;;13.07;4.45;;;;;;;8.28;100.00;101476.00;5056095;28;20034;-79
2021/05/01 07:42:37;;;;;;;11.07;4.45;;;;;;;8.41;100.00;101473.94;5056176;28;20053;-79
2021/05/01 07:45:03;;;;;;;13.77;4.55;;;;;;;8.62;100.00;101479.56;5060516;28;20030;-80
2021/05/01 07:47:29;;;;;;;11.75;3.95;;;;;;;8.46;100.00;101473.81;5057543;28;20028;-78
2021/05/01 07:49:55;;;;;;;8.75;5.00;;;;;;;8.36;100.00;101472.28;5056900;28;20033;-79
2021/05/01 07:52:22;;;;;;;7.43;4.22;;;;;;;8.86;100.00;101476.28;5065825;28;20044;-79
2021/05/01 07:54:47;;;;;;;14.77;5.03;;;;;;;8.81;100.00;101476.38;5054409;28;20567;-79
2021/05/01 07:57:12;;;;;;;9.70;4.60;;;;;;;8.87;100.00;101479.78;5048903;28;20139;-79
2021/05/01 07:59:38;;;;;;;6.68;4.43;;;;;;;8.80;100.00;101473.81;5062220;28;20071;-79
2021/05/01 08:02:04;;;;;;;9.70;4.00;;;;;;;8.77;100.00;101480.00;5069042;28;20040;-79
2021/05/01 08:04:30;;;;;;;10.00;4.20;;;;;;;8.78;100.00;101479.09;5060781;28;20112;-80
2021/05/01 08:06:55;;;;;;;16.48;4.63;;;;;;;9.49;100.00;101477.13;5061091;28;20677;-80
2021/05/01 08:09:20;;;;;;;14.35;4.95;;;;;;;9.67;100.00;101475.69;5058903;28;20023;-79
2021/05/01 08:11:46;;;;;;;7.65;5.07;;;;;;;9.92;100.00;101479.31;5057997;28;20035;-81
2021/05/01 08:14:15;;;;;;;10.93;4.85;;;;;;;9.74;100.00;101485.16;5059347;28;20044;-80
2021/05/01 08:16:40;;;;;;;14.77;4.47;;;;;;;9.22;100.00;101484.91;5062657;28;20733;-79
2021/05/01 08:19:05;;;;;;;10.43;4.95;;;;;;;9.44;100.00;101486.94;5069758;28;20029;-79
2021/05/01 08:21:31;;;;;;;8.25;4.10;;;;;;;9.45;100.00;101478.13;5060619;28;20089;-79
2021/05/01 08:23:56;;;;;;;9.18;4.97;;;;;;;9.32;100.00;101478.47;5069315;28;20032;-80
2021/05/01 08:26:22;;;;;;;9.10;6.07;;;;;;;9.33;100.00;101489.88;5069407;28;20380;-80
2021/05/01 08:28:47;;;;;;;16.83;6.65;;;;;;;9.32;100.00;101488.16;5069270;28;20078;-80
2021/05/01 08:31:13;;;;;;;12.75;5.60;;;;;;;9.44;100.00;101486.94;5074186;28;20059;-80
2021/05/01 08:33:38;;;;;;;9.32;5.15;;;;;;;9.81;100.00;101487.56;5072412;28;20028;-80
2021/05/01 08:36:04;;;;;;;13.60;5.10;;;;;;;10.06;100.00;101486.78;5065498;28;20029;-80
2021/05/01 08:38:32;;;;;;;6.28;3.83;;;;;;;9.44;100.00;101486.94;5062723;28;20033;-79
2021/05/01 08:41:01;;;;;;;7.85;3.90;;;;;;;9.27;100.00;101488.28;5058945;28;20112;-79
2021/05/01 08:43:26;;;;;;;7.93;5.63;;;;;;;9.07;100.00;101486.22;5062703;28;20899;-80
2021/05/01 08:45:53;;;;;;;10.38;3.88;;;;;;;8.69;100.00;101489.06;5068997;28;20036;-77
2021/05/01 08:48:20;;;;;;;9.10;4.05;;;;;;;8.86;100.00;101481.53;5066732;28;20031;-80
2021/05/01 08:50:54;;;;;;;7.72;4.28;;;;;;;8.67;100.00;101483.78;5068168;28;20039;-80
2021/05/01 08:53:21;;;;;;;8.35;4.78;;;;;;;8.70;100.00;101481.09;5065524;28;20035;-80
2021/05/01 08:55:46;;;;;;;10.85;5.05;;;;;;;8.82;100.00;101467.56;5063826;28;20111;-80
2021/05/01 08:58:12;;;;;;;14.10;5.55;;;;;;;9.52;100.00;101479.66;5061335;28;20060;-78
2021/05/01 09:00:41;;;;;;;8.57;5.00;;;;;;;9.92;100.00;101478.44;5060231;28;20041;-79
2021/05/01 09:03:09;;;;;;;6.25;4.32;;;;;;;9.74;100.00;101477.22;5058294;28;20039;-78
2021/05/01 09:05:37;;;;;;;7.97;4.60;;;;;;;10.38;100.00;101472.56;5054923;28;20039;-79
2021/05/01 09:08:07;;;;;;;9.32;3.70;;;;;;;10.22;100.00;101472.16;5064806;28;20047;-79
2021/05/01 09:10:46;;;;;;;8.48;4.05;;;;;;;10.66;100.00;101471.63;5065392;28;20033;-79
2021/05/01 09:13:16;;;;;;;10.68;4.40;;;;;;;10.51;100.00;101473.03;5061586;28;20372;-80
2021/05/01 09:15:54;;;;;;;7.47;3.95;;;;;;;9.75;100.00;101478.97;5065198;28;20044;-79
2021/05/01 09:18:20;;;;;;;10.38;4.00;;;;;;;8.87;100.00;101492.94;5062817;28;20033;-79
2021/05/01 09:20:45;;;;;;;10.98;4.40;;;;;;;8.23;100.00;101490.16;5063040;28;20034;-79
2021/05/01 09:23:11;;;;;;;3.47;2.40;;;;;;;8.03;100.00;101486.25;5068908;28;20425;-80
2021/05/01 09:25:58;;;;;;;14.15;5.20;;;;;;;8.15;100.00;101489.50;5068090;28;20029;-79
2021/05/01 09:28:24;;;;;;;9.93;5.18;;;;;;;8.17;100.00;101488.53;5066739;28;20039;-79
2021/05/01 09:30:59;;;;;;;11.82;4.93;;;;;;;8.41;100.00;101483.59;5067202;28;20078;-80
2021/05/01 09:33:26;;;;;;;7.38;4.22;;;;;;;8.63;100.00;101481.28;5061502;28;20585;-79
2021/05/01 09:36:03;;;;;;;19.45;5.25;;;;;;;8.97;100.00;101475.97;5061639;28;20467;-80
2021/05/01 09:38:56;;;;;;;9.90;4.15;;;;;;;9.29;100.00;101478.56;5059624;28;20033;-79
2021/05/01 09:41:24;;;;;;;9.48;3.55;;;;;;;9.14;100.00;101473.75;5050597;28;20067;-79
2021/05/01 09:44:03;;;;;;;9.73;4.05;;;;;;;9.57;100.00;101477.75;5061023;28;20365;-79
2021/05/01 09:46:31;;;;;;;6.65;3.45;;;;;;;9.66;100.00;101471.34;5057799;28;20016;-79
2021/05/01 09:49:15;;;;;;;8.82;3.88;;;;;;;10.06;100.00;101484.16;5060685;28;20103;-79
2021/05/01 09:51:48;;;;;;;11.32;3.80;;;;;;;10.98;100.00;101462.53;5062079;28;20040;-79
2021/05/01 09:54:31;;;;;;;8.43;3.30;;;;;;;11.44;100.00;101468.78;5058839;28;20098;-79
2021/05/01 09:56:59;;;;;;;11.07;4.05;;;;;;;11.03;100.00;101465.88;5057193;28;20095;-79
2021/05/01 09:59:46;;;;;;;7.97;3.72;;;;;;;11.07;100.00;101475.44;5065350;28;20060;-79
2021/05/01 10:02:24;;;;;;;13.65;3.60;;;;;;;11.41;100.00;101473.28;5057256;28;20484;-79
2021/05/01 10:05:01;;;;;;;11.43;4.28;;;;;;;10.97;100.00;101479.34;5055732;28;20049;-80
2021/05/01 10:07:27;;;;;;;8.50;4.43;;;;;;;11.21;100.00;101472.28;5056639;28;20723;-79
2021/05/01 10:09:58;;;;;;;11.75;4.20;;;;;;;10.93;100.00;101469.78;5065120;28;20111;-78
2021/05/01 10:12:34;;;;;;;8.10;3.75;;;;;;;11.03;100.00;101473.81;5066161;28;20071;-79
2021/05/01 10:15:01;;;;;;;6.22;3.80;;;;;;;11.28;100.00;101474.66;5064749;28;20028;-79
2021/05/01 10:17:28;;;;;;;7.97;3.75;;;;;;;12.29;100.00;101464.53;5072232;28;20111;-80
2021/05/01 10:20:02;;;;;;;9.20;3.78;;;;;;;12.13;100.00;101466.97;5066583;28;20686;-78
2021/05/01 10:22:29;;;;;;;7.18;3.63;;;;;;;12.77;100.00;101460.72;5061165;28;20488;-79
2021/05/01 10:24:56;;;;;;;8.68;3.63;;;;;;;12.18;100.00;101457.88;5064153;28;20037;-79
2021/05/01 10:27:22;;;;;;;10.40;3.70;;;;;;;11.47;100.00;101473.97;5056156;28;20373;-79
2021/05/01 10:30:08;;;;;;;7.35;3.03;;;;;;;10.47;100.00;101474.03;5063585;28;20078;-79
2021/05/01 10:32:45;;;;;;;8.93;3.42;;;;;;;10.59;100.00;101469.22;5063139;28;20037;-78
2021/05/01 10:35:11;;;;;;;12.02;4.03;;;;;;;10.51;100.00;101465.09;5058988;28;20544;-79
2021/05/01 10:37:44;;;;;;;8.98;3.83;;;;;;;10.40;100.00;101481.31;5062655;28;20063;-79
2021/05/01 10:40:10;;;;;;;9.18;3.72;;;;;;;11.32;100.00;101480.69;5054571;28;20032;-79
2021/05/01 10:42:36;;;;;;;9.75;3.80;;;;;;;11.64;100.00;101479.47;5065406;28;20051;-79
2021/05/01 10:45:02;;;;;;;8.27;3.25;;;;;;;11.18;100.00;101475.03;5059786;28;20028;-78
2021/05/01 10:47:28;;;;;;;7.45;3.22;;;;;;;11.30;100.00;101488.69;5059326;28;20024;-79
2021/05/01 10:49:55;;;;;;;8.27;3.22;;;;;;;12.00;100.00;101477.19;5059909;28;20020;-78
2021/05/01 10:52:22;;;;;;;9.45;2.90;;;;;;;12.14;100.00;101480.13;5056981;28;20027;-78
2021/05/01 10:55:03;;;;;;;5.10;2.90;;;;;;;13.77;100.00;101487.16;5060110;28;20390;-78
2021/05/01 10:57:30;;;;;;;8.05;3.30;;;;;;;13.64;100.00;101486.00;5065439;28;20021;-79
2021/05/01 11:00:00;;;;;;;15.35;5.25;;;;;;;12.89;94.94;101473.44;5058408;28;20091;-79
2021/05/01 11:02:43;;;;;;;8.63;2.47;;;;;;;12.22;96.76;101478.97;5062435;28;20036;-78
2021/05/01 11:05:11;;;;;;;5.78;3.00;;;;;;;13.96;91.01;101469.38;5060281;28;20037;-80
2021/05/01 11:07:52;;;;;;;10.75;3.50;;;;;;;12.33;96.78;101471.44;5061019;28;20167;-78
2021/05/01 11:10:18;;;;;;;8.93;3.45;;;;;;;11.62;96.23;101476.88;5064354;28;20021;-78
2021/05/01 11:12:52;;;;;;;8.35;3.53;;;;;;;11.84;100.00;101474.28;5061205;28;20033;-79
2021/05/01 11:15:21;;;;;;;6.65;3.25;;;;;;;10.51;100.00;101473.88;5062818;28;20473;-79
2021/05/01 11:18:05;;;;;;;6.78;3.42;;;;;;;10.59;100.00;101477.13;5063797;28;20031;-79